sensor_id;sensor_type;location;lat;lon;timestamp;temperature;humidity
34766;DHT22;20984;43.508;1.504;2022-08-25T00:01:35;25.00;83.70
34766;DHT22;20984;43.508;1.504;2022-08-25T00:04:05;25.00;82.80
34766;DHT22;20984;43.508;1.504;2022-08-25T00:06:31;25.00;83.20
34766;DHT22;20984;43.508;1.504;2022-08-25T00:08:57;25.00;83.30
34766;DHT22;20984;43.508;1.504;2022-08-25T00:11:27;25.00;83.80
34766;DHT22;20984;43.508;1.504;2022-08-25T00:13:56;24.90;84.10
34766;DHT22;20984;43.508;1.504;2022-08-25T00:16:23;24.80;84.50
34766;DHT22;20984;43.508;1.504;2022-08-25T00:18:53;24.80;84.80
34766;DHT22;20984;43.508;1.504;2022-08-25T00:21:20;24.70;84.50
34766;DHT22;20984;43.508;1.504;2022-08-25T00:23:46;24.60;85.30
34766;DHT22;20984;43.508;1.504;2022-08-25T00:26:13;24.60;85.80
34766;DHT22;20984;43.508;1.504;2022-08-25T00:28:40;24.60;86.10
34766;DHT22;20984;43.508;1.504;2022-08-25T00:31:17;24.50;86.60
34766;DHT22;20984;43.508;1.504;2022-08-25T00:33:47;24.40;87.10
34766;DHT22;20984;43.508;1.504;2022-08-25T00:36:15;24.30;88.00
34766;DHT22;20984;43.508;1.504;2022-08-25T00:38:43;24.20;88.50
34766;DHT22;20984;43.508;1.504;2022-08-25T00:41:12;24.10;89.50
34766;DHT22;20984;43.508;1.504;2022-08-25T00:46:15;24.00;90.40
34766;DHT22;20984;43.508;1.504;2022-08-25T00:48:43;23.90;90.40
34766;DHT22;20984;43.508;1.504;2022-08-25T00:51:13;23.90;90.40
34766;DHT22;20984;43.508;1.504;2022-08-25T00:53:42;23.90;90.80
34766;DHT22;20984;43.508;1.504;2022-08-25T00:56:09;23.90;90.90
34766;DHT22;20984;43.508;1.504;2022-08-25T00:58:36;23.80;90.90
34766;DHT22;20984;43.508;1.504;2022-08-25T01:01:03;23.80;91.20
34766;DHT22;20984;43.508;1.504;2022-08-25T01:03:30;23.70;91.40
34766;DHT22;20984;43.508;1.504;2022-08-25T01:05:58;23.70;91.50
34766;DHT22;20984;43.508;1.504;2022-08-25T01:08:27;23.60;91.70
34766;DHT22;20984;43.508;1.504;2022-08-25T01:10:54;23.60;91.80
34766;DHT22;20984;43.508;1.504;2022-08-25T01:13:30;23.60;91.90
34766;DHT22;20984;43.508;1.504;2022-08-25T01:15:56;23.50;92.00
34766;DHT22;20984;43.508;1.504;2022-08-25T01:18:24;23.50;92.40
34766;DHT22;20984;43.508;1.504;2022-08-25T01:20:55;23.40;92.40
34766;DHT22;20984;43.508;1.504;2022-08-25T01:23:23;23.40;92.40
34766;DHT22;20984;43.508;1.504;2022-08-25T01:26:04;23.40;91.80
34766;DHT22;20984;43.508;1.504;2022-08-25T01:28:32;23.40;91.90
34766;DHT22;20984;43.508;1.504;2022-08-25T01:30:58;23.40;91.70
34766;DHT22;20984;43.508;1.504;2022-08-25T01:33:24;23.50;91.60
34766;DHT22;20984;43.508;1.504;2022-08-25T01:35:50;23.60;91.00
34766;DHT22;20984;43.508;1.504;2022-08-25T01:38:17;23.80;90.70
34766;DHT22;20984;43.508;1.504;2022-08-25T01:40:43;23.80;90.50
34766;DHT22;20984;43.508;1.504;2022-08-25T01:43:16;23.90;90.70
34766;DHT22;20984;43.508;1.504;2022-08-25T01:45:47;23.90;90.90
34766;DHT22;20984;43.508;1.504;2022-08-25T01:48:14;23.90;91.30
34766;DHT22;20984;43.508;1.504;2022-08-25T01:50:40;23.80;91.70
34766;DHT22;20984;43.508;1.504;2022-08-25T01:55:43;23.70;92.20
34766;DHT22;20984;43.508;1.504;2022-08-25T01:58:21;23.60;92.40
34766;DHT22;20984;43.508;1.504;2022-08-25T02:00:49;23.60;92.80
34766;DHT22;20984;43.508;1.504;2022-08-25T02:03:16;23.60;92.40
34766;DHT22;20984;43.508;1.504;2022-08-25T02:05:46;23.60;92.60
34766;DHT22;20984;43.508;1.504;2022-08-25T02:08:12;23.50;92.50
34766;DHT22;20984;43.508;1.504;2022-08-25T02:10:39;23.60;92.30
34766;DHT22;20984;43.508;1.504;2022-08-25T02:13:06;23.60;92.20
34766;DHT22;20984;43.508;1.504;2022-08-25T02:15:33;23.70;92.40
34766;DHT22;20984;43.508;1.504;2022-08-25T02:17:59;23.70;92.70
34766;DHT22;20984;43.508;1.504;2022-08-25T02:20:25;23.60;92.40
34766;DHT22;20984;43.508;1.504;2022-08-25T02:22:51;23.70;92.60
34766;DHT22;20984;43.508;1.504;2022-08-25T02:25:19;23.70;92.70
34766;DHT22;20984;43.508;1.504;2022-08-25T02:27:45;23.70;92.90
34766;DHT22;20984;43.508;1.504;2022-08-25T02:30:15;23.80;93.40
34766;DHT22;20984;43.508;1.504;2022-08-25T02:32:41;23.80;94.40
34766;DHT22;20984;43.508;1.504;2022-08-25T02:35:07;23.80;95.70
34766;DHT22;20984;43.508;1.504;2022-08-25T02:37:34;23.90;96.50
34766;DHT22;20984;43.508;1.504;2022-08-25T02:40:00;23.90;97.40
34766;DHT22;20984;43.508;1.504;2022-08-25T02:42:26;23.90;98.70
34766;DHT22;20984;43.508;1.504;2022-08-25T02:44:52;24.00;99.90
34766;DHT22;20984;43.508;1.504;2022-08-25T02:47:19;24.00;99.90
34766;DHT22;20984;43.508;1.504;2022-08-25T02:49:46;24.00;99.90
34766;DHT22;20984;43.508;1.504;2022-08-25T02:52:13;24.00;99.90
34766;DHT22;20984;43.508;1.504;2022-08-25T02:54:39;24.00;99.90
34766;DHT22;20984;43.508;1.504;2022-08-25T02:57:05;24.00;99.90
34766;DHT22;20984;43.508;1.504;2022-08-25T02:59:31;24.00;99.90
34766;DHT22;20984;43.508;1.504;2022-08-25T03:01:57;24.00;99.90
34766;DHT22;20984;43.508;1.504;2022-08-25T03:04:23;23.90;99.90
34766;DHT22;20984;43.508;1.504;2022-08-25T03:06:49;24.00;99.90
34766;DHT22;20984;43.508;1.504;2022-08-25T03:09:15;23.90;99.90
34766;DHT22;20984;43.508;1.504;2022-08-25T03:11:41;23.90;99.90
34766;DHT22;20984;43.508;1.504;2022-08-25T03:14:08;23.90;99.90
34766;DHT22;20984;43.508;1.504;2022-08-25T03:16:36;23.90;99.90
34766;DHT22;20984;43.508;1.504;2022-08-25T03:19:02;23.90;99.90
34766;DHT22;20984;43.508;1.504;2022-08-25T03:21:28;23.80;99.90
34766;DHT22;20984;43.508;1.504;2022-08-25T03:23:55;23.80;99.90
34766;DHT22;20984;43.508;1.504;2022-08-25T03:26:22;23.70;99.90
34766;DHT22;20984;43.508;1.504;2022-08-25T03:29:07;23.70;99.90
34766;DHT22;20984;43.508;1.504;2022-08-25T03:31:34;23.70;99.90
34766;DHT22;20984;43.508;1.504;2022-08-25T03:34:00;23.70;99.90
34766;DHT22;20984;43.508;1.504;2022-08-25T03:36:26;23.70;99.90
34766;DHT22;20984;43.508;1.504;2022-08-25T03:38:52;23.70;99.90
34766;DHT22;20984;43.508;1.504;2022-08-25T03:41:22;23.60;99.90
34766;DHT22;20984;43.508;1.504;2022-08-25T03:43:49;23.60;99.90
34766;DHT22;20984;43.508;1.504;2022-08-25T03:46:17;23.50;99.90
34766;DHT22;20984;43.508;1.504;2022-08-25T03:48:44;23.50;99.90
34766;DHT22;20984;43.508;1.504;2022-08-25T03:51:09;23.40;99.90
34766;DHT22;20984;43.508;1.504;2022-08-25T03:53:35;23.40;99.90
34766;DHT22;20984;43.508;1.504;2022-08-25T03:56:01;23.30;99.90
34766;DHT22;20984;43.508;1.504;2022-08-25T03:58:27;23.30;99.90
34766;DHT22;20984;43.508;1.504;2022-08-25T04:00:53;23.20;99.90
34766;DHT22;20984;43.508;1.504;2022-08-25T04:03:19;23.20;99.90
34766;DHT22;20984;43.508;1.504;2022-08-25T04:05:45;23.20;99.90
34766;DHT22;20984;43.508;1.504;2022-08-25T04:08:11;23.20;99.90
34766;DHT22;20984;43.508;1.504;2022-08-25T04:10:37;23.20;99.90
34766;DHT22;20984;43.508;1.504;2022-08-25T04:13:03;23.20;99.90
34766;DHT22;20984;43.508;1.504;2022-08-25T04:15:29;23.10;99.90
34766;DHT22;20984;43.508;1.504;2022-08-25T04:17:54;23.10;99.90
34766;DHT22;20984;43.508;1.504;2022-08-25T04:20:20;23.10;99.90
34766;DHT22;20984;43.508;1.504;2022-08-25T04:22:46;23.00;99.90
34766;DHT22;20984;43.508;1.504;2022-08-25T04:25:12;23.00;99.90
34766;DHT22;20984;43.508;1.504;2022-08-25T04:27:38;23.00;99.90
34766;DHT22;20984;43.508;1.504;2022-08-25T04:30:05;23.00;99.90
34766;DHT22;20984;43.508;1.504;2022-08-25T04:32:31;23.00;99.90
34766;DHT22;20984;43.508;1.504;2022-08-25T04:34:57;23.00;99.90
34766;DHT22;20984;43.508;1.504;2022-08-25T04:37:23;22.90;99.90
34766;DHT22;20984;43.508;1.504;2022-08-25T04:39:49;22.90;99.90
34766;DHT22;20984;43.508;1.504;2022-08-25T04:42:15;22.90;99.90
34766;DHT22;20984;43.508;1.504;2022-08-25T04:44:40;22.90;99.90
34766;DHT22;20984;43.508;1.504;2022-08-25T04:47:06;22.90;99.90
34766;DHT22;20984;43.508;1.504;2022-08-25T04:49:32;22.90;99.90
34766;DHT22;20984;43.508;1.504;2022-08-25T04:51:58;22.80;99.90
34766;DHT22;20984;43.508;1.504;2022-08-25T04:54:24;22.80;99.90
34766;DHT22;20984;43.508;1.504;2022-08-25T04:56:51;22.80;99.90
34766;DHT22;20984;43.508;1.504;2022-08-25T04:59:18;22.80;99.90
34766;DHT22;20984;43.508;1.504;2022-08-25T05:01:44;22.80;99.90
34766;DHT22;20984;43.508;1.504;2022-08-25T05:04:13;22.80;99.90
34766;DHT22;20984;43.508;1.504;2022-08-25T05:06:40;22.80;99.90
34766;DHT22;20984;43.508;1.504;2022-08-25T05:09:07;22.80;99.90
34766;DHT22;20984;43.508;1.504;2022-08-25T05:11:33;22.80;99.90
34766;DHT22;20984;43.508;1.504;2022-08-25T05:14:00;22.80;99.90
34766;DHT22;20984;43.508;1.504;2022-08-25T05:16:26;22.80;99.90
34766;DHT22;20984;43.508;1.504;2022-08-25T05:18:54;22.80;99.90
34766;DHT22;20984;43.508;1.504;2022-08-25T05:21:23;22.80;99.90
34766;DHT22;20984;43.508;1.504;2022-08-25T05:23:52;22.70;99.90
34766;DHT22;20984;43.508;1.504;2022-08-25T05:26:20;22.70;99.90
34766;DHT22;20984;43.508;1.504;2022-08-25T05:28:48;22.70;99.90
34766;DHT22;20984;43.508;1.504;2022-08-25T05:31:15;22.70;99.90
34766;DHT22;20984;43.508;1.504;2022-08-25T05:33:42;22.70;99.90
34766;DHT22;20984;43.508;1.504;2022-08-25T05:36:10;22.70;99.90
34766;DHT22;20984;43.508;1.504;2022-08-25T05:38:37;22.70;99.90
34766;DHT22;20984;43.508;1.504;2022-08-25T05:41:10;22.70;99.90
34766;DHT22;20984;43.508;1.504;2022-08-25T05:43:37;22.60;99.90
34766;DHT22;20984;43.508;1.504;2022-08-25T05:46:04;22.70;99.90
34766;DHT22;20984;43.508;1.504;2022-08-25T05:48:30;22.70;99.90
34766;DHT22;20984;43.508;1.504;2022-08-25T05:50:59;22.70;99.90
34766;DHT22;20984;43.508;1.504;2022-08-25T05:53:27;22.70;99.90
34766;DHT22;20984;43.508;1.504;2022-08-25T05:55:54;22.80;99.90
34766;DHT22;20984;43.508;1.504;2022-08-25T05:58:22;22.80;99.90
34766;DHT22;20984;43.508;1.504;2022-08-25T06:00:49;22.80;99.90
34766;DHT22;20984;43.508;1.504;2022-08-25T06:03:16;22.70;99.90
34766;DHT22;20984;43.508;1.504;2022-08-25T06:05:42;22.80;99.90
34766;DHT22;20984;43.508;1.504;2022-08-25T06:08:08;22.80;99.90
34766;DHT22;20984;43.508;1.504;2022-08-25T06:10:34;22.80;99.90
34766;DHT22;20984;43.508;1.504;2022-08-25T06:13:00;22.70;99.90
34766;DHT22;20984;43.508;1.504;2022-08-25T06:15:26;22.80;99.90
34766;DHT22;20984;43.508;1.504;2022-08-25T06:17:53;22.70;99.90
34766;DHT22;20984;43.508;1.504;2022-08-25T06:20:23;22.70;99.90
34766;DHT22;20984;43.508;1.504;2022-08-25T06:22:50;22.70;99.90
34766;DHT22;20984;43.508;1.504;2022-08-25T06:25:19;22.70;99.90
34766;DHT22;20984;43.508;1.504;2022-08-25T06:27:45;22.80;99.90
34766;DHT22;20984;43.508;1.504;2022-08-25T06:30:18;22.70;99.90
34766;DHT22;20984;43.508;1.504;2022-08-25T06:32:44;22.70;99.90
34766;DHT22;20984;43.508;1.504;2022-08-25T06:35:14;22.80;99.90
34766;DHT22;20984;43.508;1.504;2022-08-25T06:37:41;22.70;99.90
34766;DHT22;20984;43.508;1.504;2022-08-25T06:40:09;22.80;99.90
34766;DHT22;20984;43.508;1.504;2022-08-25T06:42:36;22.80;99.90
34766;DHT22;20984;43.508;1.504;2022-08-25T06:45:03;22.80;99.90
34766;DHT22;20984;43.508;1.504;2022-08-25T06:47:29;22.80;99.90
34766;DHT22;20984;43.508;1.504;2022-08-25T06:49:54;22.90;99.90
34766;DHT22;20984;43.508;1.504;2022-08-25T06:52:20;23.00;99.90
34766;DHT22;20984;43.508;1.504;2022-08-25T06:54:46;23.10;99.90
34766;DHT22;20984;43.508;1.504;2022-08-25T06:57:12;23.20;99.90
34766;DHT22;20984;43.508;1.504;2022-08-25T06:59:38;23.30;99.90
34766;DHT22;20984;43.508;1.504;2022-08-25T07:02:05;23.30;99.90
34766;DHT22;20984;43.508;1.504;2022-08-25T07:04:32;23.40;99.90
34766;DHT22;20984;43.508;1.504;2022-08-25T07:06:59;23.50;99.90
34766;DHT22;20984;43.508;1.504;2022-08-25T07:09:25;23.60;99.90
34766;DHT22;20984;43.508;1.504;2022-08-25T07:11:51;23.60;99.90
34766;DHT22;20984;43.508;1.504;2022-08-25T07:14:18;23.60;99.90
34766;DHT22;20984;43.508;1.504;2022-08-25T07:16:45;23.60;99.90
34766;DHT22;20984;43.508;1.504;2022-08-25T07:19:11;23.60;99.90
34766;DHT22;20984;43.508;1.504;2022-08-25T07:21:38;23.80;99.90
34766;DHT22;20984;43.508;1.504;2022-08-25T07:24:08;23.90;99.90
34766;DHT22;20984;43.508;1.504;2022-08-25T07:26:35;24.00;99.90
34766;DHT22;20984;43.508;1.504;2022-08-25T07:29:08;23.90;99.90
34766;DHT22;20984;43.508;1.504;2022-08-25T07:31:34;23.90;99.90
34766;DHT22;20984;43.508;1.504;2022-08-25T07:34:00;23.90;99.90
34766;DHT22;20984;43.508;1.504;2022-08-25T07:36:44;24.00;99.90
34766;DHT22;20984;43.508;1.504;2022-08-25T07:39:11;23.90;99.90
34766;DHT22;20984;43.508;1.504;2022-08-25T07:41:40;23.70;99.90
34766;DHT22;20984;43.508;1.504;2022-08-25T07:44:08;23.70;99.90
34766;DHT22;20984;43.508;1.504;2022-08-25T07:46:34;23.60;99.90
34766;DHT22;20984;43.508;1.504;2022-08-25T07:49:00;23.50;99.90
34766;DHT22;20984;43.508;1.504;2022-08-25T07:51:26;23.50;99.90
34766;DHT22;20984;43.508;1.504;2022-08-25T07:53:52;23.30;99.90
34766;DHT22;20984;43.508;1.504;2022-08-25T07:56:18;23.30;99.90
34766;DHT22;20984;43.508;1.504;2022-08-25T07:58:45;23.40;99.90
34766;DHT22;20984;43.508;1.504;2022-08-25T08:01:16;23.40;99.90
34766;DHT22;20984;43.508;1.504;2022-08-25T08:03:42;23.40;99.90
34766;DHT22;20984;43.508;1.504;2022-08-25T08:06:10;23.40;99.90
34766;DHT22;20984;43.508;1.504;2022-08-25T08:08:40;23.50;99.90
34766;DHT22;20984;43.508;1.504;2022-08-25T08:11:31;23.50;99.90
34766;DHT22;20984;43.508;1.504;2022-08-25T08:14:00;23.40;99.90
34766;DHT22;20984;43.508;1.504;2022-08-25T08:16:28;23.40;99.90
34766;DHT22;20984;43.508;1.504;2022-08-25T08:18:55;23.50;99.90
34766;DHT22;20984;43.508;1.504;2022-08-25T08:21:25;23.60;99.90
34766;DHT22;20984;43.508;1.504;2022-08-25T08:23:53;23.60;99.90
34766;DHT22;20984;43.508;1.504;2022-08-25T08:26:19;23.70;99.90
34766;DHT22;20984;43.508;1.504;2022-08-25T08:28:45;23.80;99.90
34766;DHT22;20984;43.508;1.504;2022-08-25T08:31:12;23.80;99.90
34766;DHT22;20984;43.508;1.504;2022-08-25T08:33:38;23.90;99.90
34766;DHT22;20984;43.508;1.504;2022-08-25T08:36:09;23.90;99.90
34766;DHT22;20984;43.508;1.504;2022-08-25T08:38:37;24.00;99.90
34766;DHT22;20984;43.508;1.504;2022-08-25T08:44:13;24.20;99.90
34766;DHT22;20984;43.508;1.504;2022-08-25T08:50:00;24.20;99.90
34766;DHT22;20984;43.508;1.504;2022-08-25T08:52:39;24.20;99.90
34766;DHT22;20984;43.508;1.504;2022-08-25T08:55:37;24.10;99.90
34766;DHT22;20984;43.508;1.504;2022-08-25T08:58:05;24.10;99.90
34766;DHT22;20984;43.508;1.504;2022-08-25T09:00:38;24.10;99.90
34766;DHT22;20984;43.508;1.504;2022-08-25T09:03:11;24.20;99.90
34766;DHT22;20984;43.508;1.504;2022-08-25T09:05:48;24.20;99.90
34766;DHT22;20984;43.508;1.504;2022-08-25T09:08:15;24.40;99.90
34766;DHT22;20984;43.508;1.504;2022-08-25T09:27:08;24.80;99.90
34766;DHT22;20984;43.508;1.504;2022-08-25T09:32:17;24.90;99.90
34766;DHT22;20984;43.508;1.504;2022-08-25T09:34:44;24.90;99.90
34766;DHT22;20984;43.508;1.504;2022-08-25T09:37:11;25.00;99.90
34766;DHT22;20984;43.508;1.504;2022-08-25T09:39:37;25.20;99.90
34766;DHT22;20984;43.508;1.504;2022-08-25T09:42:03;25.30;99.90
34766;DHT22;20984;43.508;1.504;2022-08-25T09:44:41;25.30;99.90
34766;DHT22;20984;43.508;1.504;2022-08-25T09:49:50;25.40;99.90
34766;DHT22;20984;43.508;1.504;2022-08-25T09:52:37;25.50;99.90
34766;DHT22;20984;43.508;1.504;2022-08-25T09:57:49;26.20;99.90
34766;DHT22;20984;43.508;1.504;2022-08-25T10:03:09;26.30;99.90
34766;DHT22;20984;43.508;1.504;2022-08-25T10:06:24;26.10;99.90
34766;DHT22;20984;43.508;1.504;2022-08-25T10:08:38;26.00;99.90
34766;DHT22;20984;43.508;1.504;2022-08-25T10:11:07;26.00;99.90
34766;DHT22;20984;43.508;1.504;2022-08-25T10:13:41;26.00;99.90
34766;DHT22;20984;43.508;1.504;2022-08-25T10:16:12;26.00;99.90
34766;DHT22;20984;43.508;1.504;2022-08-25T10:21:38;26.00;99.90
34766;DHT22;20984;43.508;1.504;2022-08-25T10:24:05;25.80;99.90
34766;DHT22;20984;43.508;1.504;2022-08-25T10:32:15;25.80;99.90
34766;DHT22;20984;43.508;1.504;2022-08-25T10:34:57;26.00;99.90
34766;DHT22;20984;43.508;1.504;2022-08-25T10:37:27;26.00;99.90
34766;DHT22;20984;43.508;1.504;2022-08-25T10:42:56;25.90;99.90
34766;DHT22;20984;43.508;1.504;2022-08-25T10:45:28;25.80;99.90
34766;DHT22;20984;43.508;1.504;2022-08-25T10:53:48;25.60;99.90
34766;DHT22;20984;43.508;1.504;2022-08-25T10:59:43;26.00;99.90
34766;DHT22;20984;43.508;1.504;2022-08-25T11:02:36;26.10;99.90
34766;DHT22;20984;43.508;1.504;2022-08-25T11:07:48;26.10;99.90
34766;DHT22;20984;43.508;1.504;2022-08-25T11:10:19;26.00;99.90
34766;DHT22;20984;43.508;1.504;2022-08-25T11:12:53;26.00;99.90
34766;DHT22;20984;43.508;1.504;2022-08-25T11:15:32;26.10;99.90
34766;DHT22;20984;43.508;1.504;2022-08-25T11:18:06;26.10;99.90
34766;DHT22;20984;43.508;1.504;2022-08-25T11:20:37;26.10;99.90
34766;DHT22;20984;43.508;1.504;2022-08-25T11:25:36;26.40;99.90
34766;DHT22;20984;43.508;1.504;2022-08-25T11:28:19;26.50;99.90
34766;DHT22;20984;43.508;1.504;2022-08-25T11:30:46;26.70;99.90
34766;DHT22;20984;43.508;1.504;2022-08-25T11:33:17;27.00;99.90
34766;DHT22;20984;43.508;1.504;2022-08-25T11:35:54;27.20;99.90
34766;DHT22;20984;43.508;1.504;2022-08-25T11:55:16;27.20;99.90
34766;DHT22;20984;43.508;1.504;2022-08-25T11:57:45;27.20;99.90
34766;DHT22;20984;43.508;1.504;2022-08-25T12:06:19;27.70;99.90
34766;DHT22;20984;43.508;1.504;2022-08-25T12:08:48;27.70;99.90
34766;DHT22;20984;43.508;1.504;2022-08-25T12:17:04;27.70;99.90
34766;DHT22;20984;43.508;1.504;2022-08-25T12:35:29;28.60;99.90
34766;DHT22;20984;43.508;1.504;2022-08-25T12:38:08;28.80;99.90
34766;DHT22;20984;43.508;1.504;2022-08-25T12:40:36;28.80;99.90
34766;DHT22;20984;43.508;1.504;2022-08-25T12:43:07;28.80;99.90
34766;DHT22;20984;43.508;1.504;2022-08-25T12:45:43;28.80;99.90
34766;DHT22;20984;43.508;1.504;2022-08-25T12:51:08;28.50;99.90
34766;DHT22;20984;43.508;1.504;2022-08-25T12:53:42;28.50;99.90
34766;DHT22;20984;43.508;1.504;2022-08-25T12:56:31;28.40;99.90
34766;DHT22;20984;43.508;1.504;2022-08-25T13:12:48;28.50;99.90
34766;DHT22;20984;43.508;1.504;2022-08-25T13:14:55;28.60;99.90
34766;DHT22;20984;43.508;1.504;2022-08-25T13:17:33;28.70;99.90
34766;DHT22;20984;43.508;1.504;2022-08-25T13:20:13;28.70;99.90
34766;DHT22;20984;43.508;1.504;2022-08-25T13:22:39;28.70;99.90
34766;DHT22;20984;43.508;1.504;2022-08-25T13:25:06;28.40;99.90
34766;DHT22;20984;43.508;1.504;2022-08-25T13:27:33;28.50;99.90
34766;DHT22;20984;43.508;1.504;2022-08-25T13:30:00;28.70;99.90
34766;DHT22;20984;43.508;1.504;2022-08-25T13:32:32;28.50;99.90
34766;DHT22;20984;43.508;1.504;2022-08-25T13:35:15;28.40;99.90
34766;DHT22;20984;43.508;1.504;2022-08-25T13:37:41;28.50;99.90
34766;DHT22;20984;43.508;1.504;2022-08-25T13:40:22;28.40;99.90
34766;DHT22;20984;43.508;1.504;2022-08-25T13:42:50;28.30;99.90
34766;DHT22;20984;43.508;1.504;2022-08-25T13:45:20;28.40;99.90
34766;DHT22;20984;43.508;1.504;2022-08-25T13:47:47;28.60;99.90
34766;DHT22;20984;43.508;1.504;2022-08-25T13:53:23;28.90;99.90
34766;DHT22;20984;43.508;1.504;2022-08-25T13:55:56;29.20;99.90
34766;DHT22;20984;43.508;1.504;2022-08-25T13:58:33;29.10;99.90
34766;DHT22;20984;43.508;1.504;2022-08-25T14:01:27;29.00;99.90
34766;DHT22;20984;43.508;1.504;2022-08-25T14:03:55;28.90;99.90
34766;DHT22;20984;43.508;1.504;2022-08-25T14:06:26;29.10;99.90
34766;DHT22;20984;43.508;1.504;2022-08-25T14:11:32;29.30;99.90
34766;DHT22;20984;43.508;1.504;2022-08-25T14:14:08;28.90;99.90
34766;DHT22;20984;43.508;1.504;2022-08-25T14:16:48;28.90;99.90
34766;DHT22;20984;43.508;1.504;2022-08-25T14:19:17;29.00;99.90
34766;DHT22;20984;43.508;1.504;2022-08-25T14:21:44;29.00;99.90
34766;DHT22;20984;43.508;1.504;2022-08-25T14:24:16;28.90;99.90
34766;DHT22;20984;43.508;1.504;2022-08-25T14:26:43;28.80;99.90
34766;DHT22;20984;43.508;1.504;2022-08-25T14:29:14;28.80;99.90
34766;DHT22;20984;43.508;1.504;2022-08-25T14:31:42;28.80;99.90
34766;DHT22;20984;43.508;1.504;2022-08-25T14:34:17;28.70;99.90
34766;DHT22;20984;43.508;1.504;2022-08-25T14:36:44;28.60;99.90
34766;DHT22;20984;43.508;1.504;2022-08-25T14:39:11;28.40;99.90
34766;DHT22;20984;43.508;1.504;2022-08-25T14:41:39;28.40;99.90
34766;DHT22;20984;43.508;1.504;2022-08-25T14:44:06;28.40;99.90
34766;DHT22;20984;43.508;1.504;2022-08-25T14:46:39;28.40;99.90
34766;DHT22;20984;43.508;1.504;2022-08-25T14:49:07;28.30;99.90
34766;DHT22;20984;43.508;1.504;2022-08-25T14:51:36;28.30;99.90
34766;DHT22;20984;43.508;1.504;2022-08-25T14:54:06;28.70;99.90
34766;DHT22;20984;43.508;1.504;2022-08-25T14:56:34;29.40;99.90
34766;DHT22;20984;43.508;1.504;2022-08-25T14:59:01;29.80;99.90
34766;DHT22;20984;43.508;1.504;2022-08-25T15:01:27;29.80;99.90
34766;DHT22;20984;43.508;1.504;2022-08-25T15:04:01;29.70;99.90
34766;DHT22;20984;43.508;1.504;2022-08-25T15:06:28;29.90;99.90
34766;DHT22;20984;43.508;1.504;2022-08-25T15:08:54;30.10;99.90
34766;DHT22;20984;43.508;1.504;2022-08-25T15:11:48;30.30;99.90
34766;DHT22;20984;43.508;1.504;2022-08-25T15:14:14;30.90;99.90
34766;DHT22;20984;43.508;1.504;2022-08-25T15:16:53;31.80;99.90
34766;DHT22;20984;43.508;1.504;2022-08-25T15:19:24;32.60;98.30
34766;DHT22;20984;43.508;1.504;2022-08-25T15:21:50;32.60;97.40
34766;DHT22;20984;43.508;1.504;2022-08-25T15:24:17;32.60;97.10
34766;DHT22;20984;43.508;1.504;2022-08-25T15:26:58;32.40;97.00
34766;DHT22;20984;43.508;1.504;2022-08-25T15:29:24;32.90;96.60
34766;DHT22;20984;43.508;1.504;2022-08-25T15:31:52;33.70;95.20
34766;DHT22;20984;43.508;1.504;2022-08-25T15:34:17;33.70;93.90
34766;DHT22;20984;43.508;1.504;2022-08-25T15:36:44;33.30;94.10
34766;DHT22;20984;43.508;1.504;2022-08-25T15:39:10;33.00;94.20
34766;DHT22;20984;43.508;1.504;2022-08-25T15:41:35;32.80;94.30
34766;DHT22;20984;43.508;1.504;2022-08-25T15:44:03;33.20;94.50
34766;DHT22;20984;43.508;1.504;2022-08-25T15:46:32;34.20;93.30
34766;DHT22;20984;43.508;1.504;2022-08-25T15:48:58;34.80;91.00
34766;DHT22;20984;43.508;1.504;2022-08-25T15:51:27;34.70;90.00
34766;DHT22;20984;43.508;1.504;2022-08-25T15:53:54;34.00;90.50
34766;DHT22;20984;43.508;1.504;2022-08-25T15:56:20;33.90;91.50
34766;DHT22;20984;43.508;1.504;2022-08-25T15:58:48;33.90;90.80
34766;DHT22;20984;43.508;1.504;2022-08-25T16:01:22;33.20;91.70
34766;DHT22;20984;43.508;1.504;2022-08-25T16:03:48;33.10;92.20
34766;DHT22;20984;43.508;1.504;2022-08-25T16:06:14;33.30;91.60
34766;DHT22;20984;43.508;1.504;2022-08-25T16:08:40;33.40;91.20
34766;DHT22;20984;43.508;1.504;2022-08-25T16:11:32;32.90;91.90
34766;DHT22;20984;43.508;1.504;2022-08-25T16:14:00;32.20;92.80
34766;DHT22;20984;43.508;1.504;2022-08-25T16:16:28;33.00;92.00
34766;DHT22;20984;43.508;1.504;2022-08-25T16:18:55;33.50;90.90
34766;DHT22;20984;43.508;1.504;2022-08-25T16:21:23;34.10;89.60
34766;DHT22;20984;43.508;1.504;2022-08-25T16:23:55;34.50;87.00
34766;DHT22;20984;43.508;1.504;2022-08-25T16:26:21;34.80;85.50
34766;DHT22;20984;43.508;1.504;2022-08-25T16:28:47;34.70;84.40
34766;DHT22;20984;43.508;1.504;2022-08-25T16:31:15;33.90;85.70
34766;DHT22;20984;43.508;1.504;2022-08-25T16:33:41;33.30;88.40
34766;DHT22;20984;43.508;1.504;2022-08-25T16:36:11;33.10;89.10
34766;DHT22;20984;43.508;1.504;2022-08-25T16:38:39;32.80;90.00
34766;DHT22;20984;43.508;1.504;2022-08-25T16:41:11;32.20;90.90
34766;DHT22;20984;43.508;1.504;2022-08-25T16:43:38;31.60;91.90
34766;DHT22;20984;43.508;1.504;2022-08-25T16:46:07;31.10;92.00
34766;DHT22;20984;43.508;1.504;2022-08-25T16:48:34;30.90;92.80
34766;DHT22;20984;43.508;1.504;2022-08-25T16:51:11;30.80;93.20
34766;DHT22;20984;43.508;1.504;2022-08-25T16:53:38;30.70;93.10
34766;DHT22;20984;43.508;1.504;2022-08-25T16:56:23;30.60;93.20
34766;DHT22;20984;43.508;1.504;2022-08-25T16:58:57;30.50;93.30
34766;DHT22;20984;43.508;1.504;2022-08-25T17:01:24;30.30;93.60
34766;DHT22;20984;43.508;1.504;2022-08-25T17:03:52;30.30;93.90
34766;DHT22;20984;43.508;1.504;2022-08-25T17:06:18;30.40;93.90
34766;DHT22;20984;43.508;1.504;2022-08-25T17:08:45;30.60;93.40
34766;DHT22;20984;43.508;1.504;2022-08-25T17:11:15;30.80;93.30
34766;DHT22;20984;43.508;1.504;2022-08-25T17:13:46;30.90;92.90
34766;DHT22;20984;43.508;1.504;2022-08-25T17:16:14;30.60;92.90
34766;DHT22;20984;43.508;1.504;2022-08-25T17:18:40;30.20;93.60
34766;DHT22;20984;43.508;1.504;2022-08-25T17:21:10;29.80;94.20
34766;DHT22;20984;43.508;1.504;2022-08-25T17:23:41;29.60;95.00
34766;DHT22;20984;43.508;1.504;2022-08-25T17:26:12;29.40;95.50
34766;DHT22;20984;43.508;1.504;2022-08-25T17:28:39;29.20;95.70
34766;DHT22;20984;43.508;1.504;2022-08-25T17:31:06;29.00;96.10
34766;DHT22;20984;43.508;1.504;2022-08-25T17:33:33;28.90;96.40
34766;DHT22;20984;43.508;1.504;2022-08-25T17:35:59;28.80;96.70
34766;DHT22;20984;43.508;1.504;2022-08-25T17:38:26;28.80;97.00
34766;DHT22;20984;43.508;1.504;2022-08-25T17:40:54;28.70;97.40
34766;DHT22;20984;43.508;1.504;2022-08-25T17:43:21;28.70;97.30
34766;DHT22;20984;43.508;1.504;2022-08-25T17:45:47;28.60;97.50
34766;DHT22;20984;43.508;1.504;2022-08-25T17:48:14;28.60;97.70
34766;DHT22;20984;43.508;1.504;2022-08-25T17:50:40;28.50;97.90
34766;DHT22;20984;43.508;1.504;2022-08-25T17:53:08;28.40;98.10